Broadford, Idaho
Current Conditions -  °F | °C
As of 6:47 PM on Thursday 18 Dec 2014 (Local Time) from KSUN Reporting Station
Overcast Overcast  
Wind Chill: 30°   Ceiling: 6000
Heat Index: 30°   Visibility: 10mi
Dew Point: 28°   Wind: 0mph
Humidity: 93%   Direction: NA
Pressure: 30.12"   Gusts: NA
Location:  43.3668°N, 114.254°W
Report Text: KSUN 190147Z 00000KT 10SM SCT038 OVC060 M01/M02 A3012
Loading
Personal Weather Stations






























Interactive Weather Map New forecast layout! Learn more

10-Day Weather Forecast

Advertisements
Track Severe Weather on mobile